createdAt,value
2022-12-01T00:00:17.522Z,1025.477182
2022-12-01T00:05:17.805Z,1025.402672
2022-12-01T00:10:17.244Z,1025.376212
2022-12-01T00:15:17.508Z,1025.328495
2022-12-01T00:20:17.498Z,1025.269989
2022-12-01T00:25:17.295Z,1025.397796
2022-12-01T00:30:18.066Z,1025.397796
2022-12-01T00:35:17.465Z,1025.416719
2022-12-01T00:40:17.191Z,1025.457673
2022-12-01T00:45:17.157Z,1025.483158
2022-12-01T00:50:17.275Z,1025.457233
2022-12-01T00:55:17.457Z,1025.522255
2022-12-01T01:00:17.368Z,1025.553821
2022-12-01T01:05:17.443Z,1025.586500
2022-12-01T01:10:17.615Z,1025.591235
2022-12-01T01:15:17.197Z,1025.587281
2022-12-01T01:20:17.165Z,1025.541236
2022-12-01T01:25:17.142Z,1025.544799
2022-12-01T01:30:17.151Z,1025.511956
2022-12-01T01:35:17.054Z,1025.568730
2022-12-01T01:40:17.362Z,1025.587655
2022-12-01T01:45:17.101Z,1025.556213
2022-12-01T01:50:17.110Z,1025.615214
2022-12-01T01:55:17.041Z,1025.607679
2022-12-01T02:00:17.417Z,1025.559324
2022-12-01T02:05:17.127Z,1025.561879
2022-12-01T02:10:17.154Z,1025.574143
2022-12-01T02:15:17.170Z,1025.597013
2022-12-01T02:20:17.282Z,1025.673872
2022-12-01T02:25:17.896Z,1025.635462
2022-12-01T02:30:17.265Z,1025.631138
2022-12-01T02:35:17.552Z,1025.641369
2022-12-01T02:40:17.108Z,1025.608171
2022-12-01T02:45:17.307Z,1025.594411
2022-12-01T02:50:17.272Z,1025.616503
2022-12-01T02:55:17.079Z,1025.567217
2022-12-01T03:00:17.226Z,1025.555969
2022-12-01T03:05:17.502Z,1025.501141
2022-12-01T03:10:17.186Z,1025.489099
2022-12-01T03:15:17.091Z,1025.519185
2022-12-01T03:20:17.306Z,1025.604982
2022-12-01T03:25:17.123Z,1025.558852
2022-12-01T03:30:17.172Z,1025.615445
2022-12-01T03:35:17.269Z,1025.545742
2022-12-01T03:40:17.172Z,1025.500035
2022-12-01T03:45:17.295Z,1025.488639
2022-12-01T03:50:17.316Z,1025.521063
2022-12-01T03:55:17.340Z,1025.647326
2022-12-01T04:00:17.275Z,1025.680128
2022-12-01T04:05:21.123Z,1025.706098
2022-12-01T04:10:17.274Z,1025.738134
2022-12-01T04:15:17.465Z,1025.742354
2022-12-01T04:20:17.448Z,1025.737178
2022-12-01T04:25:17.663Z,1025.762618
2022-12-01T04:30:17.553Z,1025.725273
2022-12-01T04:35:17.073Z,1025.697594
2022-12-01T04:40:17.253Z,1025.680244
2022-12-01T04:45:17.130Z,1025.686010
2022-12-01T04:50:17.126Z,1025.724240
2022-12-01T04:55:17.032Z,1025.800266
2022-12-01T05:00:17.351Z,1025.828216
2022-12-01T05:05:17.134Z,1025.914149
2022-12-01T05:10:17.157Z,1025.894527
2022-12-01T05:15:17.197Z,1025.920984
2022-12-01T05:20:17.353Z,1025.938604
2022-12-01T05:25:17.084Z,1025.935060
2022-12-01T05:30:17.209Z,1025.880010
2022-12-01T05:35:17.112Z,1025.906517
2022-12-01T05:40:17.073Z,1025.916015
2022-12-01T05:45:16.990Z,1025.909062
2022-12-01T05:50:17.119Z,1025.847347
2022-12-01T05:55:17.168Z,1025.868834
2022-12-01T06:00:17.231Z,1025.799469
2022-12-01T06:05:17.407Z,1025.779898
2022-12-01T06:10:17.331Z,1025.810544
2022-12-01T06:15:17.132Z,1025.854537
2022-12-01T06:20:17.255Z,1025.914522
2022-12-01T06:25:17.142Z,1025.960787
2022-12-01T06:30:17.502Z,1026.004034
2022-12-01T06:35:17.124Z,1026.037717
2022-12-01T06:40:17.123Z,1026.083371
2022-12-01T06:45:17.417Z,1026.115221
2022-12-01T06:50:17.899Z,1026.129449
2022-12-01T06:55:17.568Z,1026.182311
2022-12-01T07:00:17.662Z,1026.193097
2022-12-01T07:05:17.088Z,1026.227374
2022-12-01T07:10:17.717Z,1026.248097
2022-12-01T07:15:17.099Z,1026.289121
2022-12-01T07:20:17.006Z,1026.403802
2022-12-01T07:25:17.051Z,1026.367628
2022-12-01T07:30:17.174Z,1026.494298
2022-12-01T07:35:16.971Z,1026.569072
2022-12-01T07:40:17.228Z,1026.565069
2022-12-01T07:45:17.087Z,1026.592626
2022-12-01T07:50:17.180Z,1026.558504
2022-12-01T07:55:17.002Z,1026.579671
2022-12-01T08:00:17.092Z,1026.566749
2022-12-01T08:05:16.997Z,1026.573937
2022-12-01T08:10:17.185Z,1026.638485
2022-12-01T08:15:16.976Z,1026.669265
2022-12-01T08:20:22.276Z,1026.674658
2022-12-01T08:25:16.924Z,1026.692195
2022-12-01T08:30:17.083Z,1026.705202
2022-12-01T08:35:17.207Z,1026.739985
2022-12-01T08:40:17.037Z,1026.783978
2022-12-01T08:45:17.030Z,1026.747057
2022-12-01T08:50:17.043Z,1026.721567
2022-12-01T08:55:17.021Z,1026.785826
2022-12-01T09:00:17.445Z,1026.849526
2022-12-01T09:05:17.574Z,1026.841285
2022-12-01T09:10:16.947Z,1026.839723
2022-12-01T09:15:17.041Z,1026.889397
2022-12-01T09:20:17.061Z,1026.907204
2022-12-01T09:25:16.976Z,1026.984419
2022-12-01T09:30:16.987Z,1026.959354
2022-12-01T09:35:22.011Z,1026.894003
2022-12-01T09:40:16.982Z,1026.858287
2022-12-01T09:45:16.930Z,1026.799047
2022-12-01T09:50:17.277Z,1026.721391
2022-12-01T09:55:16.933Z,1026.697533
2022-12-01T10:00:16.995Z,1026.685208
2022-12-01T10:05:17.069Z,1026.620847
2022-12-01T10:10:17.075Z,1026.631494
2022-12-01T10:15:16.978Z,1026.550724
2022-12-01T10:20:16.935Z,1026.578438
2022-12-01T10:25:17.008Z,1026.600107
2022-12-01T10:30:16.972Z,1026.565093
2022-12-01T10:35:16.990Z,1026.555654
2022-12-01T10:40:17.039Z,1026.568256
2022-12-01T10:45:17.125Z,1026.519803
2022-12-01T10:50:17.398Z,1026.468187
2022-12-01T10:55:17.465Z,1026.413088
2022-12-01T11:00:42.953Z,1026.416720
2022-12-01T11:05:16.952Z,1026.442109
2022-12-01T11:10:17.165Z,1026.368352
2022-12-01T11:15:17.020Z,1026.338420
2022-12-01T11:20:17.075Z,1026.299314
2022-12-01T11:25:17.011Z,1026.251047
2022-12-01T11:30:17.027Z,1026.298342
2022-12-01T11:35:17.017Z,1026.259008
2022-12-01T11:40:16.954Z,1026.270168
2022-12-01T11:45:16.931Z,1026.223757
2022-12-01T11:50:16.955Z,1026.159776
2022-12-01T11:55:17.153Z,1026.175174
2022-12-01T12:00:16.954Z,1026.156906
2022-12-01T12:05:16.983Z,1026.168496
2022-12-01T12:10:17.314Z,1026.157849
2022-12-01T12:15:17.107Z,1026.094265
2022-12-01T12:20:17.739Z,1026.089528
2022-12-01T12:25:17.005Z,1026.052008
2022-12-01T12:30:17.278Z,1026.012819
2022-12-01T12:35:17.037Z,1025.980778
2022-12-01T12:40:17.065Z,1025.921720
2022-12-01T12:45:17.075Z,1025.926930
2022-12-01T12:50:17.008Z,1025.904483
2022-12-01T12:55:17.228Z,1025.827859
2022-12-01T13:00:17.463Z,1025.841842
2022-12-01T13:05:17.003Z,1025.874024
2022-12-01T13:10:17.093Z,1025.859142
2022-12-01T13:15:16.914Z,1025.814828
2022-12-01T13:20:17.321Z,1025.786613
2022-12-01T13:25:16.908Z,1025.849413
2022-12-01T13:30:17.006Z,1025.813610
2022-12-01T13:35:17.007Z,1025.845898
2022-12-01T13:40:16.947Z,1025.782496
2022-12-01T13:45:17.128Z,1025.770449
2022-12-01T13:50:17.032Z,1025.793347
2022-12-01T13:55:16.927Z,1025.802582
2022-12-01T14:00:16.961Z,1025.757250
2022-12-01T14:05:17.001Z,1025.762274
2022-12-01T14:10:16.983Z,1025.701362
2022-12-01T14:15:16.939Z,1025.709682
2022-12-01T14:20:17.142Z,1025.677354
2022-12-01T14:25:17.446Z,1025.715574
2022-12-01T14:30:16.907Z,1025.689629
2022-12-01T14:35:17.248Z,1025.682039
2022-12-01T14:40:17.478Z,1025.697435
2022-12-01T14:45:17.024Z,1025.690780
2022-12-01T14:50:16.897Z,1025.667107
2022-12-01T14:55:17.056Z,1025.703887
2022-12-01T15:00:16.941Z,1025.761819
2022-12-01T15:05:16.984Z,1025.776322
2022-12-01T15:10:17.304Z,1025.717147
2022-12-01T15:15:19.808Z,1025.669562
2022-12-01T15:20:17.124Z,1025.635428
2022-12-01T15:25:16.945Z,1025.603945
2022-12-01T15:30:17.331Z,1025.637330
2022-12-01T15:35:16.852Z,1025.650162
2022-12-01T15:41:21.088Z,1025.621792
2022-12-01T15:45:16.913Z,1025.661323
2022-12-01T15:50:17.165Z,1025.623472
2022-12-01T15:55:16.865Z,1025.645723
2022-12-01T16:00:16.882Z,1025.634402
2022-12-01T16:05:16.932Z,1025.636657
2022-12-01T16:10:17.172Z,1025.615381
2022-12-01T16:15:16.953Z,1025.576134
2022-12-01T16:20:16.945Z,1025.578831
2022-12-01T16:25:16.886Z,1025.601985
2022-12-01T16:30:16.972Z,1025.685964
2022-12-01T16:35:16.870Z,1025.655833
2022-12-01T16:40:16.945Z,1025.736928
2022-12-01T16:45:17.314Z,1025.767898
2022-12-01T16:50:17.201Z,1025.820304
2022-12-01T16:55:16.810Z,1025.737069
2022-12-01T17:00:17.065Z,1025.620026
2022-12-01T17:05:17.534Z,1025.701680
2022-12-01T17:10:16.941Z,1025.772313
2022-12-01T17:15:16.889Z,1025.750505
2022-12-01T17:20:16.909Z,1025.840854
2022-12-01T17:25:16.881Z,1025.887797
2022-12-01T17:30:16.903Z,1025.898840
2022-12-01T17:35:16.809Z,1025.775102
2022-12-01T17:40:16.848Z,1025.782868
2022-12-01T17:45:16.862Z,1025.768639
2022-12-01T17:50:16.884Z,1025.799096
2022-12-01T17:55:16.980Z,1025.827043
2022-12-01T18:00:17.036Z,1025.838575
2022-12-01T18:05:16.955Z,1025.880379
2022-12-01T18:10:16.920Z,1025.866382
2022-12-01T18:15:16.764Z,1025.862263
2022-12-01T18:20:16.870Z,1025.856989
2022-12-01T18:25:16.863Z,1025.835181
2022-12-01T18:30:17.072Z,1025.831740
2022-12-01T18:35:16.924Z,1025.898374
2022-12-01T18:40:16.759Z,1025.892422
2022-12-01T18:45:21.073Z,1025.885215
2022-12-01T18:50:16.981Z,1025.850061
2022-12-01T18:55:16.883Z,1025.824254
2022-12-01T19:00:17.264Z,1025.820115
2022-12-01T19:05:17.203Z,1025.799888
2022-12-01T19:10:17.375Z,1025.821882
2022-12-01T19:15:16.840Z,1025.816596
2022-12-01T19:20:16.764Z,1025.819371
2022-12-01T19:25:16.826Z,1025.804398
2022-12-01T19:30:16.921Z,1025.802491
2022-12-01T19:35:16.858Z,1025.774405
2022-12-01T19:40:16.817Z,1025.808873
2022-12-01T19:45:16.796Z,1025.834762
2022-12-01T19:50:17.134Z,1025.837576
2022-12-01T19:55:16.840Z,1025.863034
2022-12-01T20:00:16.811Z,1025.810256
2022-12-01T20:05:16.861Z,1025.759990
2022-12-01T20:10:16.836Z,1025.754038
2022-12-01T20:15:16.841Z,1025.734229
2022-12-01T20:20:16.864Z,1025.720842
2022-12-01T20:25:16.794Z,1025.705398
2022-12-01T20:30:17.039Z,1025.664664
2022-12-01T20:35:16.837Z,1025.597099
2022-12-01T20:40:16.809Z,1025.552227
2022-12-01T20:45:17.345Z,1025.553437
2022-12-01T20:50:16.813Z,1025.583708
2022-12-01T20:55:16.799Z,1025.566365
2022-12-01T21:00:17.338Z,1025.626164
2022-12-01T21:05:17.171Z,1025.615330
2022-12-01T21:10:20.137Z,1025.569388
2022-12-01T21:15:17.179Z,1025.512420
2022-12-01T21:20:16.914Z,1025.499965
2022-12-01T21:25:16.960Z,1025.460369
2022-12-01T21:30:19.539Z,1025.441205
2022-12-01T21:35:19.524Z,1025.459462
2022-12-01T21:40:19.561Z,1025.452441
2022-12-01T21:45:19.701Z,1025.442164
2022-12-01T21:50:19.726Z,1025.450538
2022-12-01T21:55:19.368Z,1025.412502
2022-12-01T22:00:19.413Z,1025.381205
2022-12-01T22:05:19.638Z,1025.322706
2022-12-01T22:10:19.447Z,1025.310988
2022-12-01T22:15:19.542Z,1025.232449
2022-12-01T22:20:19.417Z,1025.205432
2022-12-01T22:25:19.588Z,1025.159163
2022-12-01T22:30:19.379Z,1025.144979
2022-12-01T22:35:19.323Z,1025.142935
2022-12-01T22:40:19.338Z,1025.139123
2022-12-01T22:45:19.431Z,1025.189575
2022-12-01T22:50:19.543Z,1025.207386
2022-12-01T22:55:19.615Z,1025.210083
2022-12-01T23:00:20.654Z,1025.205758
2022-12-01T23:05:19.413Z,1025.181766
2022-12-01T23:10:19.322Z,1025.116155
2022-12-01T23:15:19.199Z,1025.089696
2022-12-01T23:20:19.245Z,1025.054215
2022-12-01T23:25:19.563Z,1025.009157
2022-12-01T23:30:19.265Z,1024.947456
2022-12-01T23:35:19.535Z,1024.927089
2022-12-01T23:40:19.303Z,1024.874683
2022-12-01T23:45:19.229Z,1024.875054
2022-12-01T23:50:19.261Z,1024.785637
2022-12-01T23:55:19.194Z,1024.779871
